sensor_id;sensor_type;location;lat;lon;timestamp;P1;durP1;ratioP1;P2;durP2;ratioP2
25127;SDS011;13107;51.304;6.866;2023-09-19T00:03:19;8.85;;;1.90;;
25127;SDS011;13107;51.304;6.866;2023-09-19T00:07:21;4.72;;;1.80;;
25127;SDS011;13107;51.304;6.866;2023-09-19T00:11:23;6.95;;;1.95;;
25127;SDS011;13107;51.304;6.866;2023-09-19T00:15:28;6.68;;;1.70;;
25127;SDS011;13107;51.304;6.866;2023-09-19T00:19:30;10.68;;;2.20;;
25127;SDS011;13107;51.304;6.866;2023-09-19T00:23:32;16.70;;;2.40;;
25127;SDS011;13107;51.304;6.866;2023-09-19T00:27:34;11.95;;;2.30;;
25127;SDS011;13107;51.304;6.866;2023-09-19T00:31:36;7.90;;;2.00;;
25127;SDS011;13107;51.304;6.866;2023-09-19T00:35:39;9.80;;;1.83;;
25127;SDS011;13107;51.304;6.866;2023-09-19T00:39:51;11.70;;;1.90;;
25127;SDS011;13107;51.304;6.866;2023-09-19T00:43:53;8.75;;;1.95;;
25127;SDS011;13107;51.304;6.866;2023-09-19T00:47:55;8.93;;;1.80;;
25127;SDS011;13107;51.304;6.866;2023-09-19T00:51:58;7.57;;;1.58;;
25127;SDS011;13107;51.304;6.866;2023-09-19T00:56:01;10.35;;;2.10;;
25127;SDS011;13107;51.304;6.866;2023-09-19T01:00:08;6.95;;;1.62;;
25127;SDS011;13107;51.304;6.866;2023-09-19T01:04:21;14.35;;;1.90;;
25127;SDS011;13107;51.304;6.866;2023-09-19T01:08:23;11.23;;;2.10;;
25127;SDS011;13107;51.304;6.866;2023-09-19T01:17:00;13.82;;;1.83;;
25127;SDS011;13107;51.304;6.866;2023-09-19T01:21:15;13.05;;;2.20;;
25127;SDS011;13107;51.304;6.866;2023-09-19T01:30:02;6.75;;;1.60;;
25127;SDS011;13107;51.304;6.866;2023-09-19T01:34:16;11.18;;;2.17;;
25127;SDS011;13107;51.304;6.866;2023-09-19T01:38:19;10.23;;;2.03;;
25127;SDS011;13107;51.304;6.866;2023-09-19T01:42:28;13.23;;;2.30;;
25127;SDS011;13107;51.304;6.866;2023-09-19T01:46:39;9.02;;;2.22;;
25127;SDS011;13107;51.304;6.866;2023-09-19T01:51:05;12.05;;;2.12;;
25127;SDS011;13107;51.304;6.866;2023-09-19T01:55:07;7.28;;;1.60;;
25127;SDS011;13107;51.304;6.866;2023-09-19T01:59:13;7.60;;;1.50;;
25127;SDS011;13107;51.304;6.866;2023-09-19T02:03:17;7.60;;;1.90;;
25127;SDS011;13107;51.304;6.866;2023-09-19T02:07:23;10.48;;;1.90;;
25127;SDS011;13107;51.304;6.866;2023-09-19T02:11:25;9.88;;;1.77;;
25127;SDS011;13107;51.304;6.866;2023-09-19T02:15:27;8.18;;;1.77;;
25127;SDS011;13107;51.304;6.866;2023-09-19T02:19:29;6.32;;;1.70;;
25127;SDS011;13107;51.304;6.866;2023-09-19T02:23:32;7.68;;;1.90;;
25127;SDS011;13107;51.304;6.866;2023-09-19T02:27:34;7.28;;;1.77;;
25127;SDS011;13107;51.304;6.866;2023-09-19T02:31:37;15.57;;;1.83;;
25127;SDS011;13107;51.304;6.866;2023-09-19T02:35:39;16.37;;;2.20;;
25127;SDS011;13107;51.304;6.866;2023-09-19T02:39:41;17.15;;;2.40;;
25127;SDS011;13107;51.304;6.866;2023-09-19T02:43:43;10.77;;;2.05;;
25127;SDS011;13107;51.304;6.866;2023-09-19T02:47:48;11.27;;;2.05;;
25127;SDS011;13107;51.304;6.866;2023-09-19T02:51:50;9.02;;;1.60;;
25127;SDS011;13107;51.304;6.866;2023-09-19T02:55:53;8.00;;;1.80;;
25127;SDS011;13107;51.304;6.866;2023-09-19T02:59:55;13.38;;;2.10;;
25127;SDS011;13107;51.304;6.866;2023-09-19T03:03:57;12.23;;;1.52;;
25127;SDS011;13107;51.304;6.866;2023-09-19T03:07:59;9.25;;;1.58;;
25127;SDS011;13107;51.304;6.866;2023-09-19T03:12:02;11.57;;;1.80;;
25127;SDS011;13107;51.304;6.866;2023-09-19T03:16:05;12.32;;;1.70;;
25127;SDS011;13107;51.304;6.866;2023-09-19T03:20:07;12.57;;;1.70;;
25127;SDS011;13107;51.304;6.866;2023-09-19T03:24:10;11.07;;;1.48;;
25127;SDS011;13107;51.304;6.866;2023-09-19T03:28:12;13.20;;;2.20;;
25127;SDS011;13107;51.304;6.866;2023-09-19T03:32:14;13.57;;;2.22;;
25127;SDS011;13107;51.304;6.866;2023-09-19T03:36:16;8.50;;;1.58;;
25127;SDS011;13107;51.304;6.866;2023-09-19T03:40:18;10.40;;;1.92;;
25127;SDS011;13107;51.304;6.866;2023-09-19T03:44:22;8.25;;;1.87;;
25127;SDS011;13107;51.304;6.866;2023-09-19T03:48:24;9.43;;;1.73;;
25127;SDS011;13107;51.304;6.866;2023-09-19T03:52:26;10.73;;;2.12;;
25127;SDS011;13107;51.304;6.866;2023-09-19T03:56:28;10.20;;;1.80;;
25127;SDS011;13107;51.304;6.866;2023-09-19T04:00:30;11.57;;;2.17;;
25127;SDS011;13107;51.304;6.866;2023-09-19T04:04:31;7.85;;;1.50;;
25127;SDS011;13107;51.304;6.866;2023-09-19T04:08:33;7.85;;;2.00;;
25127;SDS011;13107;51.304;6.866;2023-09-19T04:12:35;10.50;;;1.90;;
25127;SDS011;13107;51.304;6.866;2023-09-19T04:16:37;10.63;;;1.60;;
25127;SDS011;13107;51.304;6.866;2023-09-19T04:20:40;10.23;;;1.80;;
25127;SDS011;13107;51.304;6.866;2023-09-19T04:24:42;10.85;;;1.70;;
25127;SDS011;13107;51.304;6.866;2023-09-19T04:28:44;14.98;;;1.90;;
25127;SDS011;13107;51.304;6.866;2023-09-19T04:32:47;9.85;;;1.60;;
25127;SDS011;13107;51.304;6.866;2023-09-19T04:36:52;12.98;;;2.20;;
25127;SDS011;13107;51.304;6.866;2023-09-19T04:40:57;6.35;;;1.85;;
25127;SDS011;13107;51.304;6.866;2023-09-19T04:45:00;8.40;;;2.05;;
25127;SDS011;13107;51.304;6.866;2023-09-19T04:49:01;10.20;;;2.00;;
25127;SDS011;13107;51.304;6.866;2023-09-19T04:53:03;10.52;;;1.67;;
25127;SDS011;13107;51.304;6.866;2023-09-19T04:57:06;13.18;;;2.15;;
25127;SDS011;13107;51.304;6.866;2023-09-19T05:01:08;14.98;;;2.67;;
25127;SDS011;13107;51.304;6.866;2023-09-19T05:05:12;10.15;;;2.05;;
25127;SDS011;13107;51.304;6.866;2023-09-19T05:09:16;14.10;;;2.17;;
25127;SDS011;13107;51.304;6.866;2023-09-19T05:13:20;7.15;;;1.83;;
25127;SDS011;13107;51.304;6.866;2023-09-19T05:17:24;10.25;;;1.92;;
25127;SDS011;13107;51.304;6.866;2023-09-19T05:21:26;11.02;;;1.75;;
25127;SDS011;13107;51.304;6.866;2023-09-19T05:25:33;11.93;;;1.60;;
25127;SDS011;13107;51.304;6.866;2023-09-19T05:29:38;10.00;;;1.67;;
25127;SDS011;13107;51.304;6.866;2023-09-19T05:33:39;9.82;;;2.05;;
25127;SDS011;13107;51.304;6.866;2023-09-19T05:37:41;9.13;;;1.83;;
25127;SDS011;13107;51.304;6.866;2023-09-19T05:41:43;8.23;;;1.73;;
25127;SDS011;13107;51.304;6.866;2023-09-19T05:45:46;13.48;;;2.10;;
25127;SDS011;13107;51.304;6.866;2023-09-19T05:49:48;12.60;;;2.37;;
25127;SDS011;13107;51.304;6.866;2023-09-19T05:53:50;11.25;;;1.98;;
25127;SDS011;13107;51.304;6.866;2023-09-19T05:57:56;11.82;;;2.08;;
25127;SDS011;13107;51.304;6.866;2023-09-19T06:01:57;15.27;;;2.03;;
25127;SDS011;13107;51.304;6.866;2023-09-19T06:06:01;10.45;;;2.10;;
25127;SDS011;13107;51.304;6.866;2023-09-19T06:10:04;9.15;;;1.92;;
25127;SDS011;13107;51.304;6.866;2023-09-19T06:14:09;12.80;;;2.10;;
25127;SDS011;13107;51.304;6.866;2023-09-19T06:18:11;11.30;;;1.65;;
25127;SDS011;13107;51.304;6.866;2023-09-19T06:22:18;11.25;;;2.20;;
25127;SDS011;13107;51.304;6.866;2023-09-19T06:26:20;10.75;;;2.10;;
25127;SDS011;13107;51.304;6.866;2023-09-19T06:30:23;14.77;;;2.75;;
25127;SDS011;13107;51.304;6.866;2023-09-19T06:34:26;12.50;;;2.22;;
25127;SDS011;13107;51.304;6.866;2023-09-19T06:38:28;8.90;;;2.25;;
25127;SDS011;13107;51.304;6.866;2023-09-19T06:42:30;12.25;;;2.28;;
25127;SDS011;13107;51.304;6.866;2023-09-19T06:46:32;15.43;;;2.60;;
25127;SDS011;13107;51.304;6.866;2023-09-19T06:50:36;12.30;;;1.95;;
25127;SDS011;13107;51.304;6.866;2023-09-19T06:54:37;10.48;;;2.40;;
25127;SDS011;13107;51.304;6.866;2023-09-19T06:58:41;11.35;;;2.17;;
25127;SDS011;13107;51.304;6.866;2023-09-19T07:02:45;10.85;;;2.35;;
25127;SDS011;13107;51.304;6.866;2023-09-19T07:06:49;12.15;;;2.53;;
25127;SDS011;13107;51.304;6.866;2023-09-19T07:10:51;13.18;;;1.83;;
25127;SDS011;13107;51.304;6.866;2023-09-19T07:14:53;7.75;;;1.67;;
25127;SDS011;13107;51.304;6.866;2023-09-19T07:18:56;10.55;;;1.77;;
25127;SDS011;13107;51.304;6.866;2023-09-19T07:22:58;12.57;;;2.15;;
25127;SDS011;13107;51.304;6.866;2023-09-19T07:27:01;10.15;;;2.15;;
25127;SDS011;13107;51.304;6.866;2023-09-19T07:31:03;11.73;;;1.87;;
25127;SDS011;13107;51.304;6.866;2023-09-19T07:35:06;10.15;;;2.25;;
25127;SDS011;13107;51.304;6.866;2023-09-19T07:39:09;6.15;;;1.45;;
25127;SDS011;13107;51.304;6.866;2023-09-19T07:43:23;10.63;;;1.90;;
25127;SDS011;13107;51.304;6.866;2023-09-19T07:47:26;12.77;;;1.80;;
25127;SDS011;13107;51.304;6.866;2023-09-19T07:51:28;12.98;;;2.12;;
25127;SDS011;13107;51.304;6.866;2023-09-19T07:55:30;11.30;;;1.60;;
25127;SDS011;13107;51.304;6.866;2023-09-19T07:59:34;9.88;;;1.77;;
25127;SDS011;13107;51.304;6.866;2023-09-19T08:03:36;14.50;;;2.22;;
25127;SDS011;13107;51.304;6.866;2023-09-19T08:07:43;9.60;;;2.10;;
25127;SDS011;13107;51.304;6.866;2023-09-19T08:11:49;13.48;;;2.15;;
25127;SDS011;13107;51.304;6.866;2023-09-19T08:15:52;5.45;;;1.58;;
25127;SDS011;13107;51.304;6.866;2023-09-19T08:19:54;11.63;;;1.95;;
25127;SDS011;13107;51.304;6.866;2023-09-19T08:23:56;7.85;;;1.67;;
25127;SDS011;13107;51.304;6.866;2023-09-19T08:27:58;14.05;;;2.12;;
25127;SDS011;13107;51.304;6.866;2023-09-19T08:32:03;9.25;;;1.80;;
25127;SDS011;13107;51.304;6.866;2023-09-19T08:36:06;11.98;;;1.70;;
25127;SDS011;13107;51.304;6.866;2023-09-19T08:40:08;10.05;;;1.87;;
25127;SDS011;13107;51.304;6.866;2023-09-19T08:44:10;11.82;;;2.20;;
25127;SDS011;13107;51.304;6.866;2023-09-19T08:48:16;13.75;;;2.33;;
25127;SDS011;13107;51.304;6.866;2023-09-19T08:52:27;8.43;;;1.50;;
25127;SDS011;13107;51.304;6.866;2023-09-19T08:56:35;8.85;;;1.83;;
25127;SDS011;13107;51.304;6.866;2023-09-19T09:00:40;8.60;;;1.80;;
25127;SDS011;13107;51.304;6.866;2023-09-19T09:04:45;11.00;;;1.70;;
25127;SDS011;13107;51.304;6.866;2023-09-19T09:08:50;10.70;;;1.60;;
25127;SDS011;13107;51.304;6.866;2023-09-19T09:12:53;8.02;;;1.95;;
25127;SDS011;13107;51.304;6.866;2023-09-19T09:16:56;8.23;;;1.62;;
25127;SDS011;13107;51.304;6.866;2023-09-19T09:21:00;7.35;;;1.45;;
25127;SDS011;13107;51.304;6.866;2023-09-19T09:25:02;9.98;;;1.80;;
25127;SDS011;13107;51.304;6.866;2023-09-19T09:29:05;10.88;;;2.47;;
25127;SDS011;13107;51.304;6.866;2023-09-19T09:33:08;14.82;;;2.10;;
25127;SDS011;13107;51.304;6.866;2023-09-19T09:37:15;9.90;;;1.98;;
25127;SDS011;13107;51.304;6.866;2023-09-19T09:41:21;8.18;;;1.92;;
25127;SDS011;13107;51.304;6.866;2023-09-19T09:45:38;8.63;;;1.80;;
25127;SDS011;13107;51.304;6.866;2023-09-19T09:49:49;11.25;;;2.00;;
25127;SDS011;13107;51.304;6.866;2023-09-19T09:54:09;8.98;;;1.73;;
25127;SDS011;13107;51.304;6.866;2023-09-19T09:58:16;8.93;;;1.98;;
25127;SDS011;13107;51.304;6.866;2023-09-19T10:02:28;10.82;;;1.80;;
25127;SDS011;13107;51.304;6.866;2023-09-19T10:06:40;9.77;;;1.60;;
25127;SDS011;13107;51.304;6.866;2023-09-19T10:10:48;7.37;;;1.60;;
25127;SDS011;13107;51.304;6.866;2023-09-19T10:15:04;7.72;;;1.73;;
25127;SDS011;13107;51.304;6.866;2023-09-19T10:19:08;7.00;;;1.55;;
25127;SDS011;13107;51.304;6.866;2023-09-19T10:23:11;7.82;;;1.55;;
25127;SDS011;13107;51.304;6.866;2023-09-19T10:27:13;8.15;;;1.48;;
25127;SDS011;13107;51.304;6.866;2023-09-19T10:31:21;7.60;;;1.95;;
25127;SDS011;13107;51.304;6.866;2023-09-19T10:35:27;7.87;;;1.83;;
25127;SDS011;13107;51.304;6.866;2023-09-19T10:39:30;10.77;;;2.00;;
25127;SDS011;13107;51.304;6.866;2023-09-19T10:43:33;7.50;;;1.83;;
25127;SDS011;13107;51.304;6.866;2023-09-19T10:47:37;8.82;;;1.45;;
25127;SDS011;13107;51.304;6.866;2023-09-19T10:51:39;8.07;;;1.55;;
25127;SDS011;13107;51.304;6.866;2023-09-19T10:55:57;6.65;;;1.67;;
25127;SDS011;13107;51.304;6.866;2023-09-19T11:00:05;7.45;;;1.92;;
25127;SDS011;13107;51.304;6.866;2023-09-19T11:08:27;8.02;;;1.80;;
25127;SDS011;13107;51.304;6.866;2023-09-19T11:17:29;8.82;;;1.60;;
25127;SDS011;13107;51.304;6.866;2023-09-19T11:29:49;8.80;;;1.62;;
25127;SDS011;13107;51.304;6.866;2023-09-19T11:42:48;9.10;;;1.90;;
25127;SDS011;13107;51.304;6.866;2023-09-19T11:46:55;10.52;;;1.77;;
25127;SDS011;13107;51.304;6.866;2023-09-19T11:51:00;6.50;;;1.58;;
25127;SDS011;13107;51.304;6.866;2023-09-19T11:55:08;7.15;;;1.35;;
25127;SDS011;13107;51.304;6.866;2023-09-19T11:59:13;10.27;;;1.77;;
25127;SDS011;13107;51.304;6.866;2023-09-19T12:03:24;7.45;;;1.62;;
25127;SDS011;13107;51.304;6.866;2023-09-19T12:07:32;7.07;;;1.58;;
25127;SDS011;13107;51.304;6.866;2023-09-19T12:11:49;6.05;;;1.45;;
25127;SDS011;13107;51.304;6.866;2023-09-19T12:15:51;6.95;;;2.03;;
25127;SDS011;13107;51.304;6.866;2023-09-19T12:19:53;7.70;;;1.52;;
25127;SDS011;13107;51.304;6.866;2023-09-19T12:24:03;5.30;;;1.33;;
25127;SDS011;13107;51.304;6.866;2023-09-19T12:28:13;5.35;;;1.92;;
25127;SDS011;13107;51.304;6.866;2023-09-19T12:32:44;7.55;;;1.83;;
25127;SDS011;13107;51.304;6.866;2023-09-19T12:36:45;8.88;;;1.40;;
25127;SDS011;13107;51.304;6.866;2023-09-19T12:40:48;3.65;;;1.00;;
25127;SDS011;13107;51.304;6.866;2023-09-19T12:44:52;9.40;;;1.50;;
25127;SDS011;13107;51.304;6.866;2023-09-19T12:49:19;2.92;;;0.95;;
25127;SDS011;13107;51.304;6.866;2023-09-19T12:53:24;8.43;;;1.60;;
25127;SDS011;13107;51.304;6.866;2023-09-19T12:57:27;6.65;;;1.42;;
25127;SDS011;13107;51.304;6.866;2023-09-19T13:01:29;8.52;;;1.37;;
25127;SDS011;13107;51.304;6.866;2023-09-19T13:05:47;5.95;;;1.40;;
25127;SDS011;13107;51.304;6.866;2023-09-19T13:10:03;4.28;;;1.15;;
25127;SDS011;13107;51.304;6.866;2023-09-19T13:18:32;6.87;;;1.25;;
25127;SDS011;13107;51.304;6.866;2023-09-19T13:22:44;8.40;;;1.25;;
25127;SDS011;13107;51.304;6.866;2023-09-19T13:26:50;4.65;;;0.90;;
25127;SDS011;13107;51.304;6.866;2023-09-19T13:30:52;3.75;;;1.08;;
25127;SDS011;13107;51.304;6.866;2023-09-19T13:34:54;5.15;;;0.90;;
25127;SDS011;13107;51.304;6.866;2023-09-19T13:38:56;5.07;;;0.90;;
25127;SDS011;13107;51.304;6.866;2023-09-19T13:42:57;7.22;;;1.20;;
25127;SDS011;13107;51.304;6.866;2023-09-19T13:47:00;4.85;;;1.02;;
25127;SDS011;13107;51.304;6.866;2023-09-19T13:51:03;3.83;;;0.95;;
25127;SDS011;13107;51.304;6.866;2023-09-19T13:55:05;5.37;;;1.35;;
25127;SDS011;13107;51.304;6.866;2023-09-19T13:59:08;5.70;;;0.82;;
25127;SDS011;13107;51.304;6.866;2023-09-19T14:03:10;5.65;;;0.93;;
25127;SDS011;13107;51.304;6.866;2023-09-19T14:07:12;4.65;;;0.90;;
25127;SDS011;13107;51.304;6.866;2023-09-19T14:11:16;4.97;;;1.20;;
25127;SDS011;13107;51.304;6.866;2023-09-19T14:15:18;4.68;;;0.90;;
25127;SDS011;13107;51.304;6.866;2023-09-19T14:19:20;1.80;;;0.70;;
25127;SDS011;13107;51.304;6.866;2023-09-19T14:23:22;5.53;;;0.73;;
25127;SDS011;13107;51.304;6.866;2023-09-19T14:27:24;1.75;;;0.70;;
25127;SDS011;13107;51.304;6.866;2023-09-19T14:31:26;4.12;;;0.90;;
25127;SDS011;13107;51.304;6.866;2023-09-19T14:35:29;5.12;;;0.65;;
25127;SDS011;13107;51.304;6.866;2023-09-19T14:39:30;4.00;;;0.77;;
25127;SDS011;13107;51.304;6.866;2023-09-19T14:43:32;6.25;;;0.75;;
25127;SDS011;13107;51.304;6.866;2023-09-19T14:47:34;5.87;;;1.02;;
25127;SDS011;13107;51.304;6.866;2023-09-19T14:51:37;2.20;;;0.80;;
25127;SDS011;13107;51.304;6.866;2023-09-19T14:55:40;2.75;;;0.70;;
25127;SDS011;13107;51.304;6.866;2023-09-19T14:59:45;6.70;;;0.82;;
25127;SDS011;13107;51.304;6.866;2023-09-19T15:03:47;5.37;;;0.65;;
25127;SDS011;13107;51.304;6.866;2023-09-19T15:07:51;6.03;;;0.65;;
25127;SDS011;13107;51.304;6.866;2023-09-19T15:11:53;6.47;;;0.85;;
25127;SDS011;13107;51.304;6.866;2023-09-19T15:15:58;2.45;;;0.80;;
25127;SDS011;13107;51.304;6.866;2023-09-19T15:20:01;2.70;;;0.50;;
25127;SDS011;13107;51.304;6.866;2023-09-19T15:24:04;3.25;;;0.80;;
25127;SDS011;13107;51.304;6.866;2023-09-19T15:28:06;2.95;;;0.57;;
25127;SDS011;13107;51.304;6.866;2023-09-19T15:32:09;5.07;;;0.85;;
25127;SDS011;13107;51.304;6.866;2023-09-19T15:36:12;4.68;;;0.60;;
25127;SDS011;13107;51.304;6.866;2023-09-19T15:40:15;4.78;;;0.90;;
25127;SDS011;13107;51.304;6.866;2023-09-19T15:44:18;4.30;;;0.82;;
25127;SDS011;13107;51.304;6.866;2023-09-19T15:48:20;4.50;;;0.68;;
25127;SDS011;13107;51.304;6.866;2023-09-19T15:52:22;2.67;;;0.70;;
25127;SDS011;13107;51.304;6.866;2023-09-19T15:56:27;2.45;;;0.50;;
25127;SDS011;13107;51.304;6.866;2023-09-19T16:00:29;5.07;;;0.77;;
25127;SDS011;13107;51.304;6.866;2023-09-19T16:04:31;3.85;;;0.82;;
25127;SDS011;13107;51.304;6.866;2023-09-19T16:08:35;5.55;;;0.70;;
25127;SDS011;13107;51.304;6.866;2023-09-19T16:12:40;2.95;;;0.60;;
25127;SDS011;13107;51.304;6.866;2023-09-19T16:16:41;5.47;;;0.80;;
25127;SDS011;13107;51.304;6.866;2023-09-19T16:20:44;2.78;;;0.88;;
25127;SDS011;13107;51.304;6.866;2023-09-19T16:24:45;4.55;;;0.70;;
25127;SDS011;13107;51.304;6.866;2023-09-19T16:28:48;4.80;;;0.60;;
25127;SDS011;13107;51.304;6.866;2023-09-19T16:32:51;4.03;;;1.00;;
25127;SDS011;13107;51.304;6.866;2023-09-19T16:36:53;4.80;;;0.55;;
25127;SDS011;13107;51.304;6.866;2023-09-19T16:40:55;4.32;;;0.60;;
25127;SDS011;13107;51.304;6.866;2023-09-19T16:45:01;3.85;;;0.70;;
25127;SDS011;13107;51.304;6.866;2023-09-19T16:49:03;3.42;;;0.60;;
25127;SDS011;13107;51.304;6.866;2023-09-19T16:53:06;2.03;;;0.70;;
25127;SDS011;13107;51.304;6.866;2023-09-19T16:57:11;2.20;;;0.80;;
25127;SDS011;13107;51.304;6.866;2023-09-19T17:01:13;4.03;;;0.85;;
25127;SDS011;13107;51.304;6.866;2023-09-19T17:05:16;3.90;;;0.75;;
25127;SDS011;13107;51.304;6.866;2023-09-19T17:09:19;2.45;;;0.60;;
25127;SDS011;13107;51.304;6.866;2023-09-19T17:13:21;2.47;;;0.60;;
25127;SDS011;13107;51.304;6.866;2023-09-19T17:17:23;4.75;;;0.98;;
25127;SDS011;13107;51.304;6.866;2023-09-19T17:21:25;4.75;;;0.75;;
25127;SDS011;13107;51.304;6.866;2023-09-19T17:25:28;5.22;;;0.80;;
25127;SDS011;13107;51.304;6.866;2023-09-19T17:29:32;3.70;;;1.00;;
25127;SDS011;13107;51.304;6.866;2023-09-19T17:33:34;2.35;;;0.65;;
25127;SDS011;13107;51.304;6.866;2023-09-19T17:37:36;3.05;;;0.80;;
25127;SDS011;13107;51.304;6.866;2023-09-19T17:41:41;2.55;;;0.75;;
25127;SDS011;13107;51.304;6.866;2023-09-19T17:45:43;1.87;;;0.65;;
25127;SDS011;13107;51.304;6.866;2023-09-19T17:49:45;4.82;;;0.90;;
25127;SDS011;13107;51.304;6.866;2023-09-19T17:53:50;2.25;;;0.88;;
25127;SDS011;13107;51.304;6.866;2023-09-19T17:57:53;4.53;;;0.90;;
25127;SDS011;13107;51.304;6.866;2023-09-19T18:01:58;3.78;;;0.77;;
25127;SDS011;13107;51.304;6.866;2023-09-19T18:06:00;1.77;;;0.82;;
25127;SDS011;13107;51.304;6.866;2023-09-19T18:10:01;3.42;;;0.88;;
25127;SDS011;13107;51.304;6.866;2023-09-19T18:14:05;4.90;;;0.70;;
25127;SDS011;13107;51.304;6.866;2023-09-19T18:18:07;3.78;;;0.77;;
25127;SDS011;13107;51.304;6.866;2023-09-19T18:22:09;3.72;;;0.90;;
25127;SDS011;13107;51.304;6.866;2023-09-19T18:26:12;2.83;;;1.00;;
25127;SDS011;13107;51.304;6.866;2023-09-19T18:30:15;2.67;;;0.80;;
25127;SDS011;13107;51.304;6.866;2023-09-19T18:34:17;4.87;;;0.90;;
25127;SDS011;13107;51.304;6.866;2023-09-19T18:38:19;4.05;;;1.00;;
25127;SDS011;13107;51.304;6.866;2023-09-19T18:42:21;3.08;;;0.82;;
25127;SDS011;13107;51.304;6.866;2023-09-19T18:46:24;3.90;;;1.23;;
25127;SDS011;13107;51.304;6.866;2023-09-19T18:50:26;4.50;;;1.00;;
25127;SDS011;13107;51.304;6.866;2023-09-19T18:54:28;4.00;;;1.00;;
25127;SDS011;13107;51.304;6.866;2023-09-19T18:58:30;6.72;;;1.20;;
25127;SDS011;13107;51.304;6.866;2023-09-19T19:02:32;3.40;;;1.05;;
25127;SDS011;13107;51.304;6.866;2023-09-19T19:06:34;4.05;;;0.93;;
25127;SDS011;13107;51.304;6.866;2023-09-19T19:10:39;2.17;;;1.08;;
25127;SDS011;13107;51.304;6.866;2023-09-19T19:14:42;3.50;;;0.90;;
25127;SDS011;13107;51.304;6.866;2023-09-19T19:18:47;5.80;;;0.90;;
25127;SDS011;13107;51.304;6.866;2023-09-19T19:22:50;8.48;;;1.08;;
25127;SDS011;13107;51.304;6.866;2023-09-19T19:26:52;4.55;;;0.80;;
25127;SDS011;13107;51.304;6.866;2023-09-19T19:30:54;5.28;;;1.10;;
25127;SDS011;13107;51.304;6.866;2023-09-19T19:34:56;5.18;;;1.08;;
25127;SDS011;13107;51.304;6.866;2023-09-19T19:38:57;3.08;;;0.88;;
25127;SDS011;13107;51.304;6.866;2023-09-19T19:43:01;7.28;;;0.93;;
25127;SDS011;13107;51.304;6.866;2023-09-19T19:47:03;5.00;;;1.37;;
25127;SDS011;13107;51.304;6.866;2023-09-19T19:51:06;3.28;;;0.93;;
25127;SDS011;13107;51.304;6.866;2023-09-19T19:55:09;5.37;;;1.02;;
25127;SDS011;13107;51.304;6.866;2023-09-19T19:59:11;8.13;;;1.10;;
25127;SDS011;13107;51.304;6.866;2023-09-19T20:03:14;3.80;;;1.00;;
25127;SDS011;13107;51.304;6.866;2023-09-19T20:07:16;4.32;;;0.98;;
25127;SDS011;13107;51.304;6.866;2023-09-19T20:11:18;2.97;;;1.00;;
25127;SDS011;13107;51.304;6.866;2023-09-19T20:15:28;4.60;;;1.20;;
25127;SDS011;13107;51.304;6.866;2023-09-19T20:19:31;5.25;;;1.20;;
25127;SDS011;13107;51.304;6.866;2023-09-19T20:23:36;7.40;;;1.08;;
25127;SDS011;13107;51.304;6.866;2023-09-19T20:27:42;4.22;;;1.10;;
25127;SDS011;13107;51.304;6.866;2023-09-19T20:31:44;2.40;;;0.73;;
25127;SDS011;13107;51.304;6.866;2023-09-19T20:35:46;6.37;;;0.95;;
25127;SDS011;13107;51.304;6.866;2023-09-19T20:39:48;3.53;;;1.70;;
25127;SDS011;13107;51.304;6.866;2023-09-19T20:43:50;5.20;;;1.37;;
25127;SDS011;13107;51.304;6.866;2023-09-19T20:47:52;6.87;;;1.55;;
25127;SDS011;13107;51.304;6.866;2023-09-19T20:51:54;3.53;;;0.90;;
25127;SDS011;13107;51.304;6.866;2023-09-19T20:56:01;4.70;;;1.25;;
25127;SDS011;13107;51.304;6.866;2023-09-19T21:00:04;4.12;;;1.17;;
25127;SDS011;13107;51.304;6.866;2023-09-19T21:04:09;3.60;;;1.02;;
25127;SDS011;13107;51.304;6.866;2023-09-19T21:08:11;5.43;;;1.27;;
25127;SDS011;13107;51.304;6.866;2023-09-19T21:12:13;5.70;;;0.90;;
25127;SDS011;13107;51.304;6.866;2023-09-19T21:16:15;5.82;;;1.40;;
25127;SDS011;13107;51.304;6.866;2023-09-19T21:20:18;4.65;;;1.35;;
25127;SDS011;13107;51.304;6.866;2023-09-19T21:24:23;4.82;;;1.30;;
25127;SDS011;13107;51.304;6.866;2023-09-19T21:32:32;5.03;;;1.40;;
25127;SDS011;13107;51.304;6.866;2023-09-19T21:36:34;5.20;;;1.42;;
25127;SDS011;13107;51.304;6.866;2023-09-19T21:40:37;4.75;;;1.27;;
25127;SDS011;13107;51.304;6.866;2023-09-19T21:44:38;5.03;;;1.30;;
25127;SDS011;13107;51.304;6.866;2023-09-19T21:48:40;6.82;;;1.23;;
25127;SDS011;13107;51.304;6.866;2023-09-19T21:52:42;4.90;;;1.27;;
25127;SDS011;13107;51.304;6.866;2023-09-19T21:56:44;6.57;;;1.02;;
25127;SDS011;13107;51.304;6.866;2023-09-19T22:00:52;4.45;;;1.30;;
25127;SDS011;13107;51.304;6.866;2023-09-19T22:04:55;6.03;;;1.60;;
25127;SDS011;13107;51.304;6.866;2023-09-19T22:09:00;4.55;;;1.30;;
25127;SDS011;13107;51.304;6.866;2023-09-19T22:13:01;7.03;;;1.42;;
25127;SDS011;13107;51.304;6.866;2023-09-19T22:17:03;5.95;;;1.37;;
25127;SDS011;13107;51.304;6.866;2023-09-19T22:21:06;6.07;;;1.50;;
25127;SDS011;13107;51.304;6.866;2023-09-19T22:25:15;4.50;;;1.62;;
25127;SDS011;13107;51.304;6.866;2023-09-19T22:29:19;6.55;;;1.77;;
25127;SDS011;13107;51.304;6.866;2023-09-19T22:33:22;4.50;;;1.60;;
25127;SDS011;13107;51.304;6.866;2023-09-19T22:37:24;5.07;;;1.20;;
25127;SDS011;13107;51.304;6.866;2023-09-19T22:41:29;7.53;;;1.52;;
25127;SDS011;13107;51.304;6.866;2023-09-19T22:45:33;8.40;;;1.50;;
25127;SDS011;13107;51.304;6.866;2023-09-19T22:49:37;6.07;;;1.37;;
25127;SDS011;13107;51.304;6.866;2023-09-19T22:53:39;8.63;;;1.50;;
25127;SDS011;13107;51.304;6.866;2023-09-19T22:57:46;11.15;;;1.58;;
25127;SDS011;13107;51.304;6.866;2023-09-19T23:01:48;5.00;;;1.40;;
25127;SDS011;13107;51.304;6.866;2023-09-19T23:05:51;7.35;;;1.70;;
25127;SDS011;13107;51.304;6.866;2023-09-19T23:09:53;5.47;;;1.70;;
25127;SDS011;13107;51.304;6.866;2023-09-19T23:13:55;7.55;;;1.55;;
25127;SDS011;13107;51.304;6.866;2023-09-19T23:17:59;7.45;;;2.20;;
25127;SDS011;13107;51.304;6.866;2023-09-19T23:22:01;6.93;;;1.65;;
25127;SDS011;13107;51.304;6.866;2023-09-19T23:26:18;4.07;;;1.23;;
25127;SDS011;13107;51.304;6.866;2023-09-19T23:30:21;6.50;;;1.50;;
25127;SDS011;13107;51.304;6.866;2023-09-19T23:34:29;4.60;;;1.40;;
25127;SDS011;13107;51.304;6.866;2023-09-19T23:38:30;9.13;;;1.90;;
25127;SDS011;13107;51.304;6.866;2023-09-19T23:42:33;7.87;;;1.40;;
25127;SDS011;13107;51.304;6.866;2023-09-19T23:46:36;6.15;;;1.30;;
25127;SDS011;13107;51.304;6.866;2023-09-19T23:50:40;4.72;;;1.30;;
25127;SDS011;13107;51.304;6.866;2023-09-19T23:54:44;3.95;;;1.17;;
25127;SDS011;13107;51.304;6.866;2023-09-19T23:58:49;6.35;;;1.33;;
